Aviation Digital Data Service (ADDS)

Output produced by METARs form (0854 UTC 23 July 2019)
found at http://www.aviationweather.gov/metar/data/
 
METAR text: RJFM 230800Z 26011KT 9999 FEW030 BKN/// 31/23 Q1005
Conditions at: RJFM (MIYAZAKI AIRPORT, JP) observed 0800 UTC 23 July 2019
Temperature: 31.0°C (88°F)
Dewpoint: 23.0°C (73°F) [RH = 63%]
Pressure (altimeter): 29.68 inches Hg (1005.0 mb)
Winds: from the W (260 degrees) at 13 MPH (11 knots; 5.7 m/s)
Visibility: 6 or more miles (10+ km)
Ceiling: at least 12,000 feet AGL
Clouds: few clouds at 3000 feet AGL
Weather: no significant weather observed at this time

METAR text: RJFM 230700Z 25011KT 9999 FEW030 BKN/// 31/23 Q1005
Conditions at: RJFM (MIYAZAKI AIRPORT, JP) observed 0700 UTC 23 July 2019
Temperature: 31.0°C (88°F)
Dewpoint: 23.0°C (73°F) [RH = 63%]
Pressure (altimeter): 29.68 inches Hg (1005.0 mb)
Winds: from the WSW (250 degrees) at 13 MPH (11 knots; 5.7 m/s)
Visibility: 6 or more miles (10+ km)
Ceiling: at least 12,000 feet AGL
Clouds: few clouds at 3000 feet AGL
Weather: no significant weather observed at this time

METAR text: RJFM 230600Z 26013KT 9999 FEW020 BKN070 BKN/// 32/23 Q1006
Conditions at: RJFM (MIYAZAKI AIRPORT, JP) observed 0600 UTC 23 July 2019
Temperature: 32.0°C (90°F)
Dewpoint: 23.0°C (73°F) [RH = 59%]
Pressure (altimeter): 29.70 inches Hg (1006.0 mb)
Winds: from the W (260 degrees) at 15 MPH (13 knots; 6.7 m/s)
Visibility: 6 or more miles (10+ km)
Ceiling: 7000 feet AGL
Clouds: few clouds at 2000 feet AGL
broken clouds at 7000 feet AGL
Weather: no significant weather observed at this time

METAR text: RJFM 230516Z 27010KT 220V310 9999 FEW020 SCT050 BKN070 32/21 Q1006 RMK 1CU020 3SC050 5AC070 A2972
Conditions at: RJFM (MIYAZAKI AIRPORT, JP) observed 0516 UTC 23 July 2019
Temperature: 32.0°C (90°F)
Dewpoint: 21.0°C (70°F) [RH = 52%]
Pressure (altimeter): 29.70 inches Hg (1006.0 mb)
Winds: from the W (270 degrees) at 12 MPH (10 knots; 5.1 m/s)
Visibility: 6 or more miles (10+ km)
Ceiling: 7000 feet AGL
Clouds: few clouds at 2000 feet AGL
scattered clouds at 5000 feet AGL
broken clouds at 7000 feet AGL
Weather: no significant weather observed at this time

METAR text: RJFM 230500Z 21007KT 170V270 9999 FEW020 SCT050 BKN080 33/21 Q1006
Conditions at: RJFM (MIYAZAKI AIRPORT, JP) observed 0500 UTC 23 July 2019
Temperature: 33.0°C (91°F)
Dewpoint: 21.0°C (70°F) [RH = 49%]
Pressure (altimeter): 29.70 inches Hg (1006.0 mb)
Winds: from the SSW (210 degrees) at 8 MPH (7 knots; 3.6 m/s)
Visibility: 6 or more miles (10+ km)
Ceiling: 8000 feet AGL
Clouds: few clouds at 2000 feet AGL
scattered clouds at 5000 feet AGL
broken clouds at 8000 feet AGL
Weather: no significant weather observed at this time

METAR text: RJFM 230400Z 18007KT 130V220 9999 FEW030 BKN/// 33/22 Q1006
Conditions at: RJFM (MIYAZAKI AIRPORT, JP) observed 0400 UTC 23 July 2019
Temperature: 33.0°C (91°F)
Dewpoint: 22.0°C (72°F) [RH = 53%]
Pressure (altimeter): 29.70 inches Hg (1006.0 mb)
Winds: from the S (180 degrees) at 8 MPH (7 knots; 3.6 m/s)
Visibility: 6 or more miles (10+ km)
Ceiling: at least 12,000 feet AGL
Clouds: few clouds at 3000 feet AGL
Weather: no significant weather observed at this time

METAR text: RJFM 230329Z 15008KT 120V190 9999 FEW030 BKN/// 32/24 Q1007 RMK 2CU030 A2974
Conditions at: RJFM (MIYAZAKI AIRPORT, JP) observed 0329 UTC 23 July 2019
Temperature: 32.0°C (90°F)
Dewpoint: 24.0°C (75°F) [RH = 63%]
Pressure (altimeter): 29.73 inches Hg (1007.0 mb)
Winds: from the SSE (150 degrees) at 9 MPH (8 knots; 4.1 m/s)
Visibility: 6 or more miles (10+ km)
Ceiling: at least 12,000 feet AGL
Clouds: few clouds at 3000 feet AGL
Weather: no significant weather observed at this time

METAR text: RJFM 230300Z 18006KT 130V230 9999 FEW030 BKN/// 30/23 Q1007
Conditions at: RJFM (MIYAZAKI AIRPORT, JP) observed 0300 UTC 23 July 2019
Temperature: 30.0°C (86°F)
Dewpoint: 23.0°C (73°F) [RH = 66%]
Pressure (altimeter): 29.73 inches Hg (1007.0 mb)
Winds: from the S (180 degrees) at 7 MPH (6 knots; 3.1 m/s)
Visibility: 6 or more miles (10+ km)
Ceiling: at least 12,000 feet AGL
Clouds: few clouds at 3000 feet AGL
Weather: no significant weather observed at this time

METAR text: RJFM 230200Z 25009KT 9999 FEW025 BKN/// 31/23 Q1008
Conditions at: RJFM (MIYAZAKI AIRPORT, JP) observed 0200 UTC 23 July 2019
Temperature: 31.0°C (88°F)
Dewpoint: 23.0°C (73°F) [RH = 63%]
Pressure (altimeter): 29.76 inches Hg (1008.0 mb)
Winds: from the WSW (250 degrees) at 10 MPH (9 knots; 4.6 m/s)
Visibility: 6 or more miles (10+ km)
Ceiling: at least 12,000 feet AGL
Clouds: few clouds at 2500 feet AGL
Weather: no significant weather observed at this time

METAR text: RJFM 230100Z 28009KT 220V310 9999 FEW025 SCT140 BKN/// 31/24 Q1008
Conditions at: RJFM (MIYAZAKI AIRPORT, JP) observed 0100 UTC 23 July 2019
Temperature: 31.0°C (88°F)
Dewpoint: 24.0°C (75°F) [RH = 66%]
Pressure (altimeter): 29.76 inches Hg (1008.0 mb)
Winds: from the W (280 degrees) at 10 MPH (9 knots; 4.6 m/s)
Visibility: 6 or more miles (10+ km)
Ceiling: at least 12,000 feet AGL
Clouds: few clouds at 2500 feet AGL
scattered clouds at 14000 feet AGL
Weather: no significant weather observed at this time

METAR text: RJFM 230000Z 25007KT 9999 FEW020 SCT140 BKN/// 29/24 Q1008
Conditions at: RJFM (MIYAZAKI AIRPORT, JP) observed 0000 UTC 23 July 2019
Temperature: 29.0°C (84°F)
Dewpoint: 24.0°C (75°F) [RH = 74%]
Pressure (altimeter): 29.76 inches Hg (1008.0 mb)
Winds: from the WSW (250 degrees) at 8 MPH (7 knots; 3.6 m/s)
Visibility: 6 or more miles (10+ km)
Ceiling: at least 12,000 feet AGL
Clouds: few clouds at 2000 feet AGL
scattered clouds at 14000 feet AGL
Weather: no significant weather observed at this time

METAR text: RJFM 222300Z 26009KT 9999 FEW020 SCT130 BKN/// 28/23 Q1009
Conditions at: RJFM (MIYAZAKI AIRPORT, JP) observed 2300 UTC 22 July 2019
Temperature: 28.0°C (82°F)
Dewpoint: 23.0°C (73°F) [RH = 74%]
Pressure (altimeter): 29.79 inches Hg (1009.0 mb)
Winds: from the W (260 degrees) at 10 MPH (9 knots; 4.6 m/s)
Visibility: 6 or more miles (10+ km)
Ceiling: at least 12,000 feet AGL
Clouds: few clouds at 2000 feet AGL
scattered clouds at 13000 feet AGL
Weather: no significant weather observed at this time

METAR text: RJFM 222200Z 27010KT 9999 FEW020 BKN110 BKN/// 27/23 Q1008
Conditions at: RJFM (MIYAZAKI AIRPORT, JP) observed 2200 UTC 22 July 2019
Temperature: 27.0°C (81°F)
Dewpoint: 23.0°C (73°F) [RH = 79%]
Pressure (altimeter): 29.76 inches Hg (1008.0 mb)
Winds: from the W (270 degrees) at 12 MPH (10 knots; 5.1 m/s)
Visibility: 6 or more miles (10+ km)
Ceiling: 11000 feet AGL
Clouds: few clouds at 2000 feet AGL
broken clouds at 11000 feet AGL
Weather: no significant weather observed at this time

METAR text: RJFM 222110Z 28007KT 9999 FEW020 SCT110 BKN/// 27/23 Q1008 RMK 1CU020 4AC110 A2979
Conditions at: RJFM (MIYAZAKI AIRPORT, JP) observed 2110 UTC 22 July 2019
Temperature: 27.0°C (81°F)
Dewpoint: 23.0°C (73°F) [RH = 79%]
Pressure (altimeter): 29.76 inches Hg (1008.0 mb)
Winds: from the W (280 degrees) at 8 MPH (7 knots; 3.6 m/s)
Visibility: 6 or more miles (10+ km)
Ceiling: at least 12,000 feet AGL
Clouds: few clouds at 2000 feet AGL
scattered clouds at 11000 feet AGL
Weather: no significant weather observed at this time

METAR text: RJFM 221200Z 24006KT 9999 FEW020 SCT/// 28/23 Q1009
Conditions at: RJFM (MIYAZAKI AIRPORT, JP) observed 1200 UTC 22 July 2019
Temperature: 28.0°C (82°F)
Dewpoint: 23.0°C (73°F) [RH = 74%]
Pressure (altimeter): 29.79 inches Hg (1009.0 mb)
Winds: from the WSW (240 degrees) at 7 MPH (6 knots; 3.1 m/s)
Visibility: 6 or more miles (10+ km)
Ceiling: at least 12,000 feet AGL
Clouds: few clouds at 2000 feet AGL
Weather: no significant weather observed at this time

METAR text: RJFM 221100Z 26007KT 9999 FEW025 SCT/// 29/23 Q1008
Conditions at: RJFM (MIYAZAKI AIRPORT, JP) observed 1100 UTC 22 July 2019
Temperature: 29.0°C (84°F)
Dewpoint: 23.0°C (73°F) [RH = 70%]
Pressure (altimeter): 29.76 inches Hg (1008.0 mb)
Winds: from the W (260 degrees) at 8 MPH (7 knots; 3.6 m/s)
Visibility: 6 or more miles (10+ km)
Ceiling: at least 12,000 feet AGL
Clouds: few clouds at 2500 feet AGL
Weather: no significant weather observed at this time

METAR text: RJFM 221000Z 25008KT 9999 FEW025 BKN/// 30/23 Q1008
Conditions at: RJFM (MIYAZAKI AIRPORT, JP) observed 1000 UTC 22 July 2019
Temperature: 30.0°C (86°F)
Dewpoint: 23.0°C (73°F) [RH = 66%]
Pressure (altimeter): 29.76 inches Hg (1008.0 mb)
Winds: from the WSW (250 degrees) at 9 MPH (8 knots; 4.1 m/s)
Visibility: 6 or more miles (10+ km)
Ceiling: at least 12,000 feet AGL
Clouds: few clouds at 2500 feet AGL
Weather: no significant weather observed at this time

METAR text: RJFM 220900Z 20004KT 9999 FEW025 BKN/// 30/25 Q1007
Conditions at: RJFM (MIYAZAKI AIRPORT, JP) observed 0900 UTC 22 July 2019
Temperature: 30.0°C (86°F)
Dewpoint: 25.0°C (77°F) [RH = 75%]
Pressure (altimeter): 29.73 inches Hg (1007.0 mb)
Winds: from the SSW (200 degrees) at 5 MPH (4 knots; 2.1 m/s)
Visibility: 6 or more miles (10+ km)
Ceiling: at least 12,000 feet AGL
Clouds: few clouds at 2500 feet AGL
Weather: no significant weather observed at this time

METAR text: RJFM 220800Z 16005KT 120V220 9999 FEW025 BKN/// 29/26 Q1007
Conditions at: RJFM (MIYAZAKI AIRPORT, JP) observed 0800 UTC 22 July 2019
Temperature: 29.0°C (84°F)
Dewpoint: 26.0°C (79°F) [RH = 84%]
Pressure (altimeter): 29.73 inches Hg (1007.0 mb)
Winds: from the SSE (160 degrees) at 6 MPH (5 knots; 2.6 m/s)
Visibility: 6 or more miles (10+ km)
Ceiling: at least 12,000 feet AGL
Clouds: few clouds at 2500 feet AGL
Weather: no significant weather observed at this time

METAR text: RJFM 220700Z 18007KT 150V210 9999 FEW020 BKN/// 29/26 Q1007
Conditions at: RJFM (MIYAZAKI AIRPORT, JP) observed 0700 UTC 22 July 2019
Temperature: 29.0°C (84°F)
Dewpoint: 26.0°C (79°F) [RH = 84%]
Pressure (altimeter): 29.73 inches Hg (1007.0 mb)
Winds: from the S (180 degrees) at 8 MPH (7 knots; 3.6 m/s)
Visibility: 6 or more miles (10+ km)
Ceiling: at least 12,000 feet AGL
Clouds: few clouds at 2000 feet AGL
Weather: no significant weather observed at this time

METAR text: RJFM 220600Z 14006KT 9999 FEW015 SCT030 BKN/// 27/25 Q1008
Conditions at: RJFM (MIYAZAKI AIRPORT, JP) observed 0600 UTC 22 July 2019
Temperature: 27.0°C (81°F)
Dewpoint: 25.0°C (77°F) [RH = 89%]
Pressure (altimeter): 29.76 inches Hg (1008.0 mb)
Winds: from the SE (140 degrees) at 7 MPH (6 knots; 3.1 m/s)
Visibility: 6 or more miles (10+ km)
Ceiling: at least 12,000 feet AGL
Clouds: few clouds at 1500 feet AGL
scattered clouds at 3000 feet AGL
Weather: no significant weather observed at this time

METAR text: RJFM 220500Z 14003KT 9999 FEW015 BKN/// 28/25 Q1008
Conditions at: RJFM (MIYAZAKI AIRPORT, JP) observed 0500 UTC 22 July 2019
Temperature: 28.0°C (82°F)
Dewpoint: 25.0°C (77°F) [RH = 84%]
Pressure (altimeter): 29.76 inches Hg (1008.0 mb)
Winds: from the SE (140 degrees) at 3 MPH (3 knots; 1.5 m/s)
Visibility: 6 or more miles (10+ km)
Ceiling: at least 12,000 feet AGL
Clouds: few clouds at 1500 feet AGL
Weather: no significant weather observed at this time

METAR text: RJFM 220400Z 13004KT 9999 FEW015 BKN/// 28/25 Q1009
Conditions at: RJFM (MIYAZAKI AIRPORT, JP) observed 0400 UTC 22 July 2019
Temperature: 28.0°C (82°F)
Dewpoint: 25.0°C (77°F) [RH = 84%]
Pressure (altimeter): 29.79 inches Hg (1009.0 mb)
Winds: from the SE (130 degrees) at 5 MPH (4 knots; 2.1 m/s)
Visibility: 6 or more miles (10+ km)
Ceiling: at least 12,000 feet AGL
Clouds: few clouds at 1500 feet AGL
Weather: no significant weather observed at this time

METAR text: RJFM 220300Z 04003KT 320V090 9999 FEW015 SCT025 BKN/// 27/25 Q1009
Conditions at: RJFM (MIYAZAKI AIRPORT, JP) observed 0300 UTC 22 July 2019
Temperature: 27.0°C (81°F)
Dewpoint: 25.0°C (77°F) [RH = 89%]
Pressure (altimeter): 29.79 inches Hg (1009.0 mb)
Winds: from the NE (40 degrees) at 3 MPH (3 knots; 1.5 m/s)
Visibility: 6 or more miles (10+ km)
Ceiling: at least 12,000 feet AGL
Clouds: few clouds at 1500 feet AGL
scattered clouds at 2500 feet AGL
Weather: no significant weather observed at this time

METAR text: RJFM 220200Z VRB01KT 9999 FEW015 SCT190 BKN/// 27/24 Q1010
Conditions at: RJFM (MIYAZAKI AIRPORT, JP) observed 0200 UTC 22 July 2019
Temperature: 27.0°C (81°F)
Dewpoint: 24.0°C (75°F) [RH = 84%]
Pressure (altimeter): 29.82 inches Hg (1010.0 mb)
Winds: variable direction winds at 1 MPH (1 knots; 0.5 m/s)
Visibility: 6 or more miles (10+ km)
Ceiling: at least 12,000 feet AGL
Clouds: few clouds at 1500 feet AGL
scattered clouds at 19000 feet AGL
Weather: no significant weather observed at this time

METAR text: RJFM 220100Z VRB02KT 9999 FEW005 SCT080 BKN/// 25/24 Q1010
Conditions at: RJFM (MIYAZAKI AIRPORT, JP) observed 0100 UTC 22 July 2019
Temperature: 25.0°C (77°F)
Dewpoint: 24.0°C (75°F) [RH = 94%]
Pressure (altimeter): 29.82 inches Hg (1010.0 mb)
Winds: variable direction winds at 2 MPH (2 knots; 1.0 m/s)
Visibility: 6 or more miles (10+ km)
Ceiling: at least 12,000 feet AGL
Clouds: few clouds at 500 feet AGL
scattered clouds at 8000 feet AGL
Weather: no significant weather observed at this time

METAR text: RJFM 220000Z 36003KT 9999 FEW005 BKN080 BKN130 26/24 Q1010
Conditions at: RJFM (MIYAZAKI AIRPORT, JP) observed 0000 UTC 22 July 2019
Temperature: 26.0°C (79°F)
Dewpoint: 24.0°C (75°F) [RH = 89%]
Pressure (altimeter): 29.82 inches Hg (1010.0 mb)
Winds: from the N (360 degrees) at 3 MPH (3 knots; 1.5 m/s)
Visibility: 6 or more miles (10+ km)
Ceiling: 8000 feet AGL
Clouds: few clouds at 500 feet AGL
broken clouds at 8000 feet AGL
broken clouds at 13000 feet AGL
Weather: no significant weather observed at this time

METAR text: RJFM 212300Z 11004KT 9999 -RA FEW005 SCT090 BKN130 25/24 Q1010
Conditions at: RJFM (MIYAZAKI AIRPORT, JP) observed 2300 UTC 21 July 2019
Temperature: 25.0°C (77°F)
Dewpoint: 24.0°C (75°F) [RH = 94%]
Pressure (altimeter): 29.82 inches Hg (1010.0 mb)
Winds: from the ESE (110 degrees) at 5 MPH (4 knots; 2.1 m/s)
Visibility: 6 or more miles (10+ km)
Ceiling: 13000 feet AGL
Clouds: few clouds at 500 feet AGL
scattered clouds at 9000 feet AGL
broken clouds at 13000 feet AGL
Weather: -RA  (light rain)

METAR text: RJFM 212200Z 01003KT 9999 -RA FEW005 SCT120 BKN150 25/24 Q1009
Conditions at: RJFM (MIYAZAKI AIRPORT, JP) observed 2200 UTC 21 July 2019
Temperature: 25.0°C (77°F)
Dewpoint: 24.0°C (75°F) [RH = 94%]
Pressure (altimeter): 29.79 inches Hg (1009.0 mb)
Winds: from the N (10 degrees) at 3 MPH (3 knots; 1.5 m/s)
Visibility: 6 or more miles (10+ km)
Ceiling: 15000 feet AGL
Clouds: few clouds at 500 feet AGL
scattered clouds at 12000 feet AGL
broken clouds at 15000 feet AGL
Weather: -RA  (light rain)

METAR text: RJFM 212110Z 08003KT 9000 FEW002 SCT090 BKN120 25/24 Q1009 RMK 1ST002 3AC090 5AC120 A2981
Conditions at: RJFM (MIYAZAKI AIRPORT, JP) observed 2110 UTC 21 July 2019
Temperature: 25.0°C (77°F)
Dewpoint: 24.0°C (75°F) [RH = 94%]
Pressure (altimeter): 29.79 inches Hg (1009.0 mb)
Winds: from the E (80 degrees) at 3 MPH (3 knots; 1.5 m/s)
Visibility: 6 miles ( 9 km)
Ceiling: 12000 feet AGL
Clouds: few clouds at 200 feet AGL
scattered clouds at 9000 feet AGL
broken clouds at 12000 feet AGL
Weather: no significant weather observed at this time

Forecast for: RJFM (MIYAZAKI AIRPORT, JP)
Text: TAF RJFM 230513Z 2306/2412 24008KT 9999 FEW030
Forecast period: 0600 UTC 23 July 2019 to 0000 UTC 24 July 2019
Forecast type: FROM: standard forecast or significant change
Winds: from the WSW (240 degrees) at 9 MPH (8 knots; 4.1 m/s)
Visibility: 6 or more miles 10+ km)
Ceiling: at least 12,000 feet AGL
Clouds: few clouds at 3000 feet AGL
Weather: no significant weather forecast for this period
Text: BECMG 2400/2403 14007KT
Forecast period: 0000 to 0900 UTC 24 July 2019
Forecast type: BECOMING: Conditions expected to become as follows by 0300 UTC 24 July 2019
Winds: from the SE (140 degrees) at 8 MPH (7 knots; 3.6 m/s)
Visibility: 6 or more miles 10+ km)
Ceiling: at least 12,000 feet AGL
Clouds: few clouds at 3000 feet AGL
Weather: no significant weather forecast for this period
Text: BECMG 2409/2412 28006KT
Forecast period: 0900 to 1200 UTC 24 July 2019
Forecast type: BECOMING: Conditions expected to become as follows by 1200 UTC 24 July 2019
Winds: from the W (280 degrees) at 7 MPH (6 knots; 3.1 m/s)
Visibility: 6 or more miles 10+ km)
Ceiling: at least 12,000 feet AGL
Clouds: few clouds at 3000 feet AGL
Weather: no significant weather forecast for this period